Time;durP1;ratioP1;P1;durP2;ratioP2;P2;SDS_P1;SDS_P2;PMS_P1;PMS_P2;Temp;Humidity;BMP_temperature;BMP_pressure;BME280_temperature;BME280_humidity;BME280_pressure;Samples;Min_cycle;Max_cycle;Signal;HPM_P1;HPM_P2
2023/10/26 00:00:32;;;;;;;0.00;0.00;;;;;;;11.55;92.88;98091.13;5002612;28;20495;-73
2023/10/26 00:02:58;;;;;;;0.00;0.00;;;;;;;11.55;93.17;98091.13;4995487;28;20469;-74
2023/10/26 00:05:26;;;;;;;0.00;0.00;;;;;;;11.42;93.17;98082.03;5003835;28;20107;-74
2023/10/26 00:08:02;;;;;;;0.00;0.00;;;;;;;11.26;93.25;98065.34;4990234;28;20491;-77
2023/10/26 00:10:27;;;;;;;0.00;0.00;;;;;;;11.40;93.93;98100.69;4991654;28;20080;-73
2023/10/26 00:12:52;;;;;;;0.00;0.00;;;;;;;11.43;93.61;98093.75;4998061;28;20526;-74
2023/10/26 00:15:18;;;;;;;0.00;0.00;;;;;;;11.32;93.69;98069.50;4989455;28;20155;-75
2023/10/26 00:17:43;;;;;;;0.00;0.00;;;;;;;11.43;93.78;98077.34;5006704;28;20103;-74
2023/10/26 00:20:09;;;;;;;0.00;0.00;;;;;;;11.46;94.30;98079.41;4996101;28;20030;-73
2023/10/26 00:22:35;;;;;;;0.00;0.00;;;;;;;11.45;93.95;98075.09;4986960;28;20035;-73
2023/10/26 00:25:00;;;;;;;0.00;0.00;;;;;;;11.43;94.14;98069.91;5009988;28;20063;-74
2023/10/26 00:27:26;;;;;;;0.00;0.00;;;;;;;11.38;94.21;98066.59;4974393;28;20038;-74
2023/10/26 00:29:51;;;;;;;0.00;0.00;;;;;;;11.34;94.59;98055.47;4999394;28;20028;-74
2023/10/26 00:32:17;;;;;;;0.00;0.00;;;;;;;11.34;94.94;98055.47;4953866;28;20034;-76
2023/10/26 00:34:43;;;;;;;0.00;0.00;;;;;;;11.30;95.10;98047.16;4998162;28;20057;-77
2023/10/26 00:37:08;;;;;;;0.00;0.00;;;;;;;11.35;95.32;98052.41;4999997;28;20061;-76
2023/10/26 00:39:34;;;;;;;0.00;0.00;;;;;;;11.31;95.59;98043.25;5001117;28;20075;-76
2023/10/26 00:41:59;;;;;;;0.00;0.00;;;;;;;11.33;95.38;98038.28;4989143;28;20032;-76
2023/10/26 00:44:25;;;;;;;0.00;0.00;;;;;;;11.38;95.78;98041.97;4988087;28;20108;-76
2023/10/26 00:46:52;;;;;;;0.00;0.00;;;;;;;11.40;95.93;98045.16;4947084;28;20038;-76
2023/10/26 00:49:19;;;;;;;0.00;0.00;;;;;;;11.45;95.51;98053.19;5001684;28;20042;-76
2023/10/26 00:51:51;;;;;;;0.00;0.00;;;;;;;11.46;96.06;98043.84;4995112;28;20117;-76
2023/10/26 00:54:19;;;;;;;0.00;0.00;;;;;;;11.44;95.91;98041.44;5001251;28;20052;-77
2023/10/26 00:56:47;;;;;;;0.00;0.00;;;;;;;11.41;95.79;98042.09;4995632;28;20329;-77
2023/10/26 00:59:14;;;;;;;0.00;0.00;;;;;;;11.31;95.67;98032.31;5008877;28;20037;-77
2023/10/26 01:01:42;;;;;;;0.10;0.10;;;;;;;11.31;96.18;98043.25;4984060;28;20384;-77
2023/10/26 01:04:07;;;;;;;0.00;0.00;;;;;;;11.34;96.45;98056.28;4985313;28;20623;-78
2023/10/26 01:06:33;;;;;;;0.00;0.00;;;;;;;11.25;96.94;98043.78;4997516;28;20026;-76
2023/10/26 01:08:58;;;;;;;0.00;0.00;;;;;;;11.25;97.42;98049.25;5000109;28;20041;-76
2023/10/26 01:11:24;;;;;;;0.00;0.00;;;;;;;11.23;97.48;98046.84;4985326;28;20447;-77
2023/10/26 01:13:50;;;;;;;0.00;0.00;;;;;;;11.20;97.84;98041.22;4993189;28;20015;-76
2023/10/26 01:16:16;;;;;;;0.00;0.00;;;;;;;11.14;98.04;98038.69;4997658;28;20485;-79
2023/10/26 01:18:42;;;;;;;0.00;0.00;;;;;;;11.16;98.43;98035.63;5010771;28;20050;-76
2023/10/26 01:21:09;;;;;;;0.00;0.00;;;;;;;11.12;99.03;98023.72;4979729;28;20038;-75
2023/10/26 01:23:35;;;;;;;0.00;0.00;;;;;;;11.20;98.94;98031.09;4970125;28;20057;-74
2023/10/26 01:26:00;;;;;;;0.00;0.00;;;;;;;11.28;99.03;98027.50;4981839;28;20480;-74
2023/10/26 01:28:26;;;;;;;0.00;0.00;;;;;;;11.15;98.79;98006.66;4966815;28;20456;-74
2023/10/26 01:30:54;;;;;;;0.10;0.10;;;;;;;11.25;98.43;98006.28;4988816;28;20114;-75
2023/10/26 01:33:22;;;;;;;0.00;0.00;;;;;;;11.32;98.61;98016.72;4997308;28;20022;-73
2023/10/26 01:35:49;;;;;;;0.00;0.00;;;;;;;11.38;98.39;98020.06;4968158;28;20069;-74
2023/10/26 01:38:15;;;;;;;0.00;0.00;;;;;;;11.41;98.45;98013.94;4973276;28;20026;-74
2023/10/26 01:40:41;;;;;;;0.00;0.00;;;;;;;11.42;98.48;98010.03;4987634;28;20069;-74
2023/10/26 01:43:06;;;;;;;0.00;0.00;;;;;;;11.45;98.60;98009.41;4964959;28;20037;-74
2023/10/26 01:45:32;;;;;;;0.10;0.10;;;;;;;11.45;98.25;98003.94;4984439;28;20025;-75
2023/10/26 01:48:03;;;;;;;0.00;0.00;;;;;;;11.38;98.53;97992.72;4980195;28;20026;-77
2023/10/26 01:50:29;;;;;;;0.00;0.00;;;;;;;11.36;98.22;97987.56;4996232;28;20022;-75
2023/10/26 01:52:57;;;;;;;0.00;0.00;;;;;;;11.31;98.30;97972.13;5005235;28;20049;-73
2023/10/26 01:55:23;;;;;;;0.00;0.00;;;;;;;11.33;98.05;97967.13;4985476;28;20578;-77
2023/10/26 01:57:48;;;;;;;0.00;0.00;;;;;;;11.49;98.17;97991.16;4989191;28;20034;-77
2023/10/26 02:00:14;;;;;;;0.00;0.00;;;;;;;11.37;98.57;97969.22;4989425;28;20073;-77
2023/10/26 02:02:41;;;;;;;0.00;0.00;;;;;;;11.39;98.12;97975.97;5004817;28;20058;-77
2023/10/26 02:05:07;;;;;;;0.00;0.00;;;;;;;11.50;98.48;97987.31;4993923;28;20448;-79
2023/10/26 02:07:40;;;;;;;0.00;0.00;;;;;;;11.41;98.63;97970.94;4973691;28;20037;-78
2023/10/26 02:10:06;;;;;;;0.00;0.00;;;;;;;11.48;97.89;97978.66;4983534;28;20535;-78
2023/10/26 02:12:31;;;;;;;0.00;0.00;;;;;;;11.40;98.34;97950.19;4982135;28;20044;-78
2023/10/26 02:14:56;;;;;;;0.00;0.00;;;;;;;11.38;98.07;97932.50;4975742;28;20042;-77
2023/10/26 02:17:22;;;;;;;0.10;0.10;;;;;;;11.44;98.59;97939.38;4985446;28;20688;-79
2023/10/26 02:19:57;;;;;;;;;;;;;;;;;;;;;
2023/10/26 02:22:23;;;;;;;0.00;0.00;;;;;;;11.52;98.56;97943.97;4983492;28;20037;-78
2023/10/26 02:24:49;;;;;;;0.00;0.00;;;;;;;11.44;97.91;97922.97;4995132;28;20032;-79
2023/10/26 02:27:14;;;;;;;0.00;0.00;;;;;;;11.51;98.49;97931.44;4987325;28;20037;-80
2023/10/26 02:29:42;;;;;;;0.00;0.00;;;;;;;11.43;98.24;97918.63;5003768;28;20759;-79
2023/10/26 02:32:08;;;;;;;0.00;0.00;;;;;;;11.56;98.31;97939.44;4987386;28;20123;-80
2023/10/26 02:34:33;;;;;;;0.00;0.00;;;;;;;11.53;97.95;97931.91;4970238;28;20049;-79
2023/10/26 02:37:00;;;;;;;0.00;0.00;;;;;;;11.41;98.59;97918.16;5002614;28;20361;-78
2023/10/26 02:39:27;;;;;;;0.00;0.00;;;;;;;11.42;98.71;97919.75;4976891;28;20038;-78
2023/10/26 02:41:52;;;;;;;0.00;0.00;;;;;;;11.48;98.69;97921.19;4984953;28;20049;-78
2023/10/26 02:44:18;;;;;;;0.00;0.00;;;;;;;11.54;98.99;97919.84;4970066;28;20058;-79
2023/10/26 02:46:43;;;;;;;0.00;0.00;;;;;;;11.57;98.07;97935.59;5001744;28;20026;-79
2023/10/26 02:49:09;;;;;;;0.00;0.00;;;;;;;11.39;98.43;97907.56;4973238;28;20033;-78
2023/10/26 02:51:34;;;;;;;0.00;0.00;;;;;;;11.35;98.66;97901.94;4983925;28;20045;-79
2023/10/26 02:53:59;;;;;;;0.00;0.00;;;;;;;11.43;98.65;97907.69;4978332;28;20022;-79
2023/10/26 02:56:25;;;;;;;0.00;0.00;;;;;;;11.41;98.61;97899.00;4985001;28;20042;-78
2023/10/26 02:58:52;;;;;;;0.00;0.00;;;;;;;11.48;98.92;97904.75;4972569;28;20064;-79
2023/10/26 03:01:17;;;;;;;0.00;0.00;;;;;;;11.44;98.93;97903.81;4993192;28;20037;-77
2023/10/26 03:04:12;;;;;;;0.00;0.00;;;;;;;11.47;99.11;97886.72;4979403;28;20057;-78
2023/10/26 03:06:41;;;;;;;0.00;0.00;;;;;;;11.38;99.07;97872.31;4994252;28;20142;-78
2023/10/26 03:09:10;;;;;;;0.00;0.00;;;;;;;11.47;99.20;97887.50;4988608;28;20045;-77
2023/10/26 03:11:36;;;;;;;0.00;0.00;;;;;;;11.48;99.10;97888.34;5005959;28;20032;-77
2023/10/26 03:14:02;;;;;;;0.00;0.00;;;;;;;11.44;98.89;97881.91;4986180;28;20030;-76
2023/10/26 03:16:27;;;;;;;0.00;0.00;;;;;;;11.52;98.69;97897.44;4977538;28;20049;-78
2023/10/26 03:18:52;;;;;;;0.00;0.00;;;;;;;11.47;99.04;97886.72;4988643;28;20042;-77
2023/10/26 03:21:20;;;;;;;0.00;0.00;;;;;;;11.46;99.16;97887.84;4955482;28;20072;-78
2023/10/26 03:23:52;;;;;;;0.00;0.00;;;;;;;11.44;99.04;97881.91;5000336;28;20049;-76
2023/10/26 03:26:18;;;;;;;0.00;0.00;;;;;;;11.46;98.84;97874.16;4975206;28;20446;-76
2023/10/26 03:28:44;;;;;;;0.00;0.00;;;;;;;11.53;98.72;97879.91;4999758;28;20026;-76
2023/10/26 03:31:12;;;;;;;0.00;0.00;;;;;;;11.52;98.73;97881.03;5002514;28;20119;-77
2023/10/26 03:33:38;;;;;;;0.00;0.00;;;;;;;11.51;99.57;97882.19;4988590;28;20025;-77
2023/10/26 03:36:11;;;;;;;0.00;0.00;;;;;;;11.45;99.19;97867.91;5003170;28;20088;-78
2023/10/26 03:38:36;;;;;;;0.00;0.00;;;;;;;11.51;99.33;97877.50;5006873;28;20029;-77
2023/10/26 03:41:04;;;;;;;0.00;0.00;;;;;;;11.55;99.41;97876.84;4994138;28;20025;-77
2023/10/26 03:43:39;;;;;;;0.00;0.00;;;;;;;11.42;98.52;97851.34;5008972;28;20405;-77
2023/10/26 03:46:04;;;;;;;0.00;0.00;;;;;;;11.41;98.85;97856.03;5002816;28;20037;-77
2023/10/26 03:48:31;;;;;;;0.00;0.00;;;;;;;11.41;99.20;97860.69;5010093;28;20029;-78
2023/10/26 03:50:57;;;;;;;0.00;0.00;;;;;;;11.45;99.06;97858.91;4995113;28;20036;-79
2023/10/26 03:53:22;;;;;;;0.00;0.00;;;;;;;11.43;99.21;97850.22;4989320;28;20108;-77
2023/10/26 03:55:47;;;;;;;0.00;0.00;;;;;;;11.44;99.31;97838.13;5001971;28;20022;-77
2023/10/26 03:58:17;;;;;;;0.00;0.00;;;;;;;11.44;99.15;97843.63;4950400;28;20053;-78
2023/10/26 04:00:45;;;;;;;0.00;0.00;;;;;;;11.34;99.29;97829.19;5010150;28;20028;-77
2023/10/26 04:03:13;;;;;;;0.00;0.00;;;;;;;11.34;99.10;97823.72;4991399;28;20037;-75
2023/10/26 04:05:39;;;;;;;0.00;0.00;;;;;;;11.41;99.11;97833.34;5003014;28;20675;-76
2023/10/26 04:08:05;;;;;;;0.00;0.00;;;;;;;11.28;98.99;97814.13;4988586;28;20037;-77
2023/10/26 04:10:31;;;;;;;0.00;0.00;;;;;;;11.44;99.22;97827.97;5011704;28;20843;-76
2023/10/26 04:12:56;;;;;;;0.00;0.00;;;;;;;11.47;99.21;97840.19;4991081;28;20444;-76
2023/10/26 04:15:22;;;;;;;0.00;0.00;;;;;;;11.35;99.04;97830.00;4954842;28;20058;-77
2023/10/26 04:17:47;;;;;;;0.00;0.00;;;;;;;11.37;99.16;97832.41;4980147;28;20065;-77
2023/10/26 04:20:13;;;;;;;0.00;0.00;;;;;;;11.38;99.58;97839.47;4976263;28;20034;-76
2023/10/26 04:22:39;;;;;;;0.00;0.00;;;;;;;11.29;99.08;97832.13;4993541;28;20026;-77
2023/10/26 04:25:05;;;;;;;0.00;0.00;;;;;;;11.34;99.29;97840.13;5006397;28;20499;-77
2023/10/26 04:27:32;;;;;;;0.00;0.00;;;;;;;11.36;98.88;97842.56;5007260;28;20056;-77
2023/10/26 04:29:58;;;;;;;0.00;0.00;;;;;;;11.34;98.88;97845.59;5010335;28;20032;-76
2023/10/26 04:32:23;;;;;;;0.00;0.00;;;;;;;11.32;99.13;97844.34;4995695;28;20026;-78
2023/10/26 04:34:48;;;;;;;0.00;0.00;;;;;;;11.39;99.00;97857.47;4990700;28;20040;-78
2023/10/26 04:37:14;;;;;;;0.00;0.00;;;;;;;11.33;99.08;97854.97;4975853;28;20030;-78
2023/10/26 04:39:43;;;;;;;0.00;0.00;;;;;;;11.38;99.44;97855.91;5001310;28;20038;-78
2023/10/26 04:42:13;;;;;;;0.00;0.00;;;;;;;11.39;98.96;97862.97;4991612;28;20092;-77
2023/10/26 04:44:39;;;;;;;0.00;0.00;;;;;;;11.32;99.06;97845.16;4985284;28;20469;-79
2023/10/26 04:47:05;;;;;;;0.00;0.00;;;;;;;11.27;99.38;97833.59;5012534;28;20472;-78
2023/10/26 04:49:33;;;;;;;0.00;0.00;;;;;;;11.30;99.18;97833.75;4981038;28;20061;-78
2023/10/26 04:52:01;;;;;;;0.00;0.00;;;;;;;11.35;99.63;97844.47;4984168;28;20105;-77
2023/10/26 04:54:34;;;;;;;0.00;0.00;;;;;;;11.27;98.93;97845.38;4998649;28;20094;-77
2023/10/26 04:56:59;;;;;;;0.00;0.00;;;;;;;11.38;98.55;97878.59;4982171;28;20827;-76
2023/10/26 04:59:32;;;;;;;0.00;0.00;;;;;;;11.07;99.33;97859.78;5002106;28;20033;-76
2023/10/26 05:01:59;;;;;;;0.00;0.00;;;;;;;10.84;100.00;97854.66;4969878;28;20034;-77
2023/10/26 05:04:25;;;;;;;0.00;0.00;;;;;;;10.88;100.00;97882.94;4972497;28;20061;-77
2023/10/26 05:06:51;;;;;;;0.00;0.00;;;;;;;10.74;100.00;97864.00;4986640;28;20033;-77
2023/10/26 05:09:16;;;;;;;0.00;0.00;;;;;;;10.71;100.00;97861.16;4983393;28;20428;-76
2023/10/26 05:11:44;;;;;;;0.00;0.00;;;;;;;10.73;100.00;97869.81;4986551;28;20025;-75
2023/10/26 05:14:18;;;;;;;0.00;0.00;;;;;;;10.67;100.00;97865.66;4971688;28;20049;-78
2023/10/26 05:16:44;;;;;;;0.00;0.00;;;;;;;10.59;100.00;97843.50;4967011;28;20030;-76
2023/10/26 05:19:09;;;;;;;0.00;0.00;;;;;;;10.67;100.00;97838.34;4999325;28;20048;-76
2023/10/26 05:21:34;;;;;;;0.00;0.00;;;;;;;10.64;100.00;97835.16;4994597;28;20480;-74
2023/10/26 05:24:00;;;;;;;0.00;0.00;;;;;;;10.56;100.00;97819.59;4986847;28;20033;-74
2023/10/26 05:26:27;;;;;;;0.00;0.00;;;;;;;10.59;100.00;97840.78;4990225;28;20029;-74
2023/10/26 05:28:53;;;;;;;0.00;0.00;;;;;;;10.52;100.00;97848.69;4999041;28;20030;-74
2023/10/26 05:31:18;;;;;;;0.00;0.00;;;;;;;10.47;100.00;97854.34;4965880;28;20052;-73
2023/10/26 05:33:44;;;;;;;0.00;0.00;;;;;;;10.50;100.00;97856.44;4974902;28;20033;-73
2023/10/26 05:36:11;;;;;;;0.00;0.00;;;;;;;10.41;100.00;97847.44;5006483;28;20037;-73
2023/10/26 05:38:37;;;;;;;0.00;0.00;;;;;;;10.57;100.00;97862.19;4976117;28;20041;-73
2023/10/26 05:41:02;;;;;;;0.00;0.00;;;;;;;10.62;100.00;97861.97;4989387;28;20038;-74
2023/10/26 05:43:28;;;;;;;0.00;0.00;;;;;;;10.66;100.00;97859.41;5002766;28;20957;-73
2023/10/26 05:45:54;;;;;;;0.00;0.00;;;;;;;10.60;100.00;97850.59;4989139;28;20125;-73
2023/10/26 05:48:23;;;;;;;0.00;0.00;;;;;;;10.56;100.00;97846.91;4972404;28;21492;-72
2023/10/26 05:50:48;;;;;;;0.00;0.00;;;;;;;10.48;100.00;97853.19;5011168;28;20026;-76
2023/10/26 05:53:16;;;;;;;0.00;0.00;;;;;;;10.24;100.00;97842.84;4950257;28;20560;-76
2023/10/26 05:55:41;;;;;;;0.00;0.00;;;;;;;10.12;100.00;97840.78;4992327;28;20022;-75
2023/10/26 05:58:09;;;;;;;0.10;0.10;;;;;;;9.91;100.00;97830.53;4969240;28;20037;-75
2023/10/26 06:00:34;;;;;;;0.00;0.00;;;;;;;9.79;100.00;97841.34;4990027;28;20026;-75
2023/10/26 06:03:02;;;;;;;0.00;0.00;;;;;;;9.66;100.00;97825.97;4972709;28;20034;-75
2023/10/26 06:05:27;;;;;;;0.00;0.00;;;;;;;9.56;100.00;97824.34;4984599;28;20060;-74
2023/10/26 06:07:53;;;;;;;0.00;0.00;;;;;;;9.54;100.00;97829.34;4971440;28;20484;-75
2023/10/26 06:10:21;;;;;;;0.00;0.00;;;;;;;9.48;100.00;97836.88;5004357;28;20599;-77
2023/10/26 06:12:46;;;;;;;0.00;0.00;;;;;;;9.43;100.00;97843.31;4983439;28;20022;-75
2023/10/26 06:15:12;;;;;;;0.00;0.00;;;;;;;9.26;100.00;97830.47;5008129;28;20033;-76
2023/10/26 06:17:37;;;;;;;0.00;0.00;;;;;;;9.15;100.00;97829.19;4986537;28;20084;-76
2023/10/26 06:20:03;;;;;;;0.00;0.00;;;;;;;9.19;100.00;97838.31;4988634;28;20034;-75
2023/10/26 06:22:31;;;;;;;0.00;0.00;;;;;;;9.29;100.00;97833.66;4993804;28;20071;-77
2023/10/26 06:24:57;;;;;;;0.00;0.00;;;;;;;9.53;100.00;97855.81;4983455;28;20033;-76
2023/10/26 06:27:22;;;;;;;0.00;0.00;;;;;;;9.57;100.00;97856.78;4957760;28;20060;-74
2023/10/26 06:29:51;;;;;;;0.00;0.00;;;;;;;9.57;100.00;97854.03;4975667;28;20030;-75
2023/10/26 06:32:16;;;;;;;0.00;0.00;;;;;;;9.51;100.00;97849.88;5000289;28;20361;-75
2023/10/26 06:34:42;;;;;;;0.00;0.00;;;;;;;9.55;100.00;97856.31;4990166;28;20037;-75
2023/10/26 06:37:07;;;;;;;0.00;0.00;;;;;;;9.51;100.00;97855.34;4969485;28;20034;-75
2023/10/26 06:39:32;;;;;;;0.00;0.00;;;;;;;9.60;100.00;97861.59;4977057;28;20040;-75
2023/10/26 06:41:58;;;;;;;0.00;0.00;;;;;;;9.64;100.00;97867.22;4973640;28;20476;-75
2023/10/26 06:44:23;;;;;;;0.00;0.00;;;;;;;9.63;100.00;97856.63;4991919;28;20033;-75
2023/10/26 06:46:49;;;;;;;0.00;0.00;;;;;;;9.67;100.00;97865.78;4985892;28;20080;-73
2023/10/26 06:49:14;;;;;;;0.00;0.00;;;;;;;9.66;100.00;97867.69;4984450;28;20575;-74
2023/10/26 06:51:40;;;;;;;0.00;0.00;;;;;;;9.64;100.00;97874.56;4997642;28;20679;-73
2023/10/26 06:54:08;;;;;;;0.00;0.00;;;;;;;9.59;100.00;97879.09;4975075;28;20753;-72
2023/10/26 06:56:36;;;;;;;0.00;0.00;;;;;;;9.39;100.00;97852.47;4974738;28;20056;-73
2023/10/26 06:59:04;;;;;;;0.10;0.10;;;;;;;9.56;100.00;97879.75;4988468;28;20113;-74
2023/10/26 07:01:32;;;;;;;0.00;0.00;;;;;;;9.30;100.00;97855.19;5005435;28;20064;-73
2023/10/26 07:03:57;;;;;;;0.00;0.00;;;;;;;9.20;100.00;97855.47;4996540;28;20096;-74
2023/10/26 07:06:25;;;;;;;0.00;0.00;;;;;;;9.12;100.00;97854.34;5003408;28;20026;-82
2023/10/26 07:08:58;;;;;;;0.00;0.00;;;;;;;9.05;100.00;97843.13;4979825;28;20022;-77
2023/10/26 07:11:24;;;;;;;0.00;0.00;;;;;;;9.16;100.00;97860.78;4974271;28;20041;-74
2023/10/26 07:13:51;;;;;;;0.00;0.00;;;;;;;9.25;100.00;97872.50;4987669;28;20018;-76
2023/10/26 07:16:19;;;;;;;0.00;0.00;;;;;;;9.24;100.00;97868.19;4967429;28;20388;-75
2023/10/26 07:18:45;;;;;;;0.00;0.00;;;;;;;9.32;100.00;97868.50;4969647;28;20022;-75
2023/10/26 07:21:10;;;;;;;0.00;0.00;;;;;;;9.36;100.00;97864.81;4991341;28;20041;-75
2023/10/26 07:23:45;;;;;;;0.08;0.08;;;;;;;9.45;100.00;97875.72;5000553;28;20168;-75
2023/10/26 07:26:14;;;;;;;;;;;;;;;9.65;100.00;97898.03;5000129;28;20026;-75
2023/10/26 07:28:52;;;;;;;0.00;0.00;;;;;;;9.47;100.00;97865.28;4988344;28;19909;-75
2023/10/26 07:31:21;;;;;;;0.00;0.00;;;;;;;9.67;100.00;97888.41;4994042;28;20041;-74
2023/10/26 07:33:47;;;;;;;0.00;0.00;;;;;;;9.67;100.00;97874.75;4986954;28;20084;-75
2023/10/26 07:36:15;;;;;;;0.00;0.00;;;;;;;9.78;100.00;97880.66;5000666;28;20104;-73
2023/10/26 07:38:41;;;;;;;0.00;0.00;;;;;;;9.94;100.00;97902.81;5008357;28;20040;-76
2023/10/26 07:41:08;;;;;;;0.00;0.00;;;;;;;9.76;100.00;97872.81;4984599;28;20038;-73
2023/10/26 07:43:37;;;;;;;0.00;0.00;;;;;;;9.86;100.00;97888.06;4983396;28;20036;-75
2023/10/26 07:46:03;;;;;;;0.00;0.00;;;;;;;9.89;100.00;97884.69;4984579;28;20101;-75
2023/10/26 07:48:28;;;;;;;0.00;0.00;;;;;;;10.08;100.00;97894.44;4978572;28;20085;-75
2023/10/26 07:50:55;;;;;;;0.00;0.00;;;;;;;10.03;100.00;97875.50;4974951;28;20030;-76
2023/10/26 07:53:28;;;;;;;0.00;0.00;;;;;;;10.23;100.00;97888.44;4974888;28;20025;-74
2023/10/26 07:55:57;;;;;;;0.00;0.00;;;;;;;10.40;100.00;97892.31;4980029;28;20353;-74
2023/10/26 07:58:24;;;;;;;0.10;0.10;;;;;;;10.54;100.00;97890.16;4980766;28;20115;-74
2023/10/26 08:00:59;;;;;;;0.00;0.00;;;;;;;10.53;100.00;97877.63;4993998;28;20041;-74
2023/10/26 08:03:25;;;;;;;0.00;0.00;;;;;;;10.57;100.00;97864.09;5001185;28;20040;-74
2023/10/26 08:06:02;;;;;;;0.00;0.00;;;;;;;11.17;100.00;97900.47;4981921;28;20038;-74
2023/10/26 08:08:29;;;;;;;0.05;0.05;;;;;;;12.78;100.00;97901.06;4996826;28;20956;-75
2023/10/26 08:11:08;;;;;;;0.00;0.00;;;;;;;15.19;92.18;97905.78;4983517;28;20034;-75
2023/10/26 08:13:33;;;;;;;0.00;0.00;;;;;;;17.12;79.45;97906.34;5004630;28;20025;-75
2023/10/26 08:16:00;;;;;;;0.00;0.00;;;;;;;18.56;72.06;97887.97;4987893;28;20365;-74
2023/10/26 08:18:54;;;;;;;0.00;0.00;;;;;;;20.12;65.32;97893.34;4986644;28;20041;-74
2023/10/26 08:21:20;;;;;;;0.00;0.00;;;;;;;21.31;59.79;97877.56;4996603;28;20022;-74
2023/10/26 08:23:46;;;;;;;0.00;0.00;;;;;;;22.39;56.57;97910.59;4996969;28;20037;-73
2023/10/26 08:26:12;;;;;;;0.00;0.00;;;;;;;22.97;54.72;97913.00;4992777;28;20026;-75
2023/10/26 08:28:49;;;;;;;0.00;0.00;;;;;;;23.95;52.07;97896.88;4990620;28;20034;-74
2023/10/26 08:31:14;;;;;;;0.00;0.00;;;;;;;25.47;48.98;97908.59;4978289;28;20053;-74
2023/10/26 08:33:40;;;;;;;0.00;0.00;;;;;;;26.55;46.28;97904.41;4987590;28;20092;-73
2023/10/26 08:36:06;;;;;;;0.00;0.00;;;;;;;27.34;44.75;97924.94;4999253;28;20033;-73
2023/10/26 08:38:32;;;;;;;0.00;0.00;;;;;;;28.05;43.81;97940.31;4986196;28;20022;-73
2023/10/26 08:40:58;;;;;;;0.00;0.00;;;;;;;28.52;42.53;97919.28;5002176;28;20018;-74
2023/10/26 08:43:23;;;;;;;0.00;0.00;;;;;;;28.87;41.41;97913.81;4982106;28;20024;-75
2023/10/26 08:45:51;;;;;;;0.00;0.00;;;;;;;29.26;40.78;97928.59;4986263;28;20372;-74
2023/10/26 08:48:19;;;;;;;0.00;0.00;;;;;;;29.80;39.20;97915.47;4976406;28;20057;-73
2023/10/26 08:50:45;;;;;;;0.00;0.00;;;;;;;30.19;37.56;97921.69;5004810;28;20037;-74
2023/10/26 08:53:12;;;;;;;0.00;0.00;;;;;;;30.50;36.29;97908.91;4980955;28;20025;-74
2023/10/26 08:55:41;;;;;;;0.00;0.00;;;;;;;30.63;36.02;97912.41;5004591;28;20033;-74
2023/10/26 08:58:08;;;;;;;0.00;0.00;;;;;;;31.15;34.89;97918.41;5004961;28;20022;-75
2023/10/26 09:00:38;;;;;;;0.00;0.00;;;;;;;31.59;33.44;97911.72;4989887;28;20038;-75
2023/10/26 09:03:03;;;;;;;0.00;0.00;;;;;;;31.61;32.86;97926.94;4998172;28;20018;-75
2023/10/26 09:05:29;;;;;;;0.00;0.00;;;;;;;32.44;32.63;97931.72;4998039;28;20387;-76
2023/10/26 09:07:54;;;;;;;0.00;0.00;;;;;;;32.57;32.65;97916.59;4995733;28;20072;-74
2023/10/26 09:10:36;;;;;;;0.00;0.00;;;;;;;32.20;33.14;97942.94;4982676;28;21529;-75
2023/10/26 09:13:04;;;;;;;0.00;0.00;;;;;;;30.88;32.98;97916.25;5007661;28;20399;-75
2023/10/26 09:15:30;;;;;;;0.00;0.00;;;;;;;30.63;34.91;97920.88;4976255;28;20476;-74
2023/10/26 09:18:17;;;;;;;0.00;0.00;;;;;;;31.76;33.57;97909.34;5008489;28;20030;-74
2023/10/26 09:20:59;;;;;;;0.00;0.00;;;;;;;32.42;33.33;97920.13;4998191;28;20022;-76
2023/10/26 09:23:30;;;;;;;0.00;0.00;;;;;;;33.57;32.26;97928.66;4997277;28;20034;-73
2023/10/26 09:26:06;;;;;;;0.00;0.00;;;;;;;34.13;31.80;97939.53;5004762;28;20030;-74
2023/10/26 09:28:50;;;;;;;0.00;0.00;;;;;;;35.09;30.27;97938.31;4999758;28;20088;-75
2023/10/26 09:31:17;;;;;;;;;;;;;;;35.59;27.42;97937.44;5003016;28;20057;-74
2023/10/26 09:33:42;;;;;;;0.00;0.00;;;;;;;36.18;26.91;97912.75;4991989;28;19913;-74
2023/10/26 09:36:41;;;;;;;0.00;0.00;;;;;;;37.47;24.68;97942.69;4988258;28;20480;-76
2023/10/26 09:39:20;;;;;;;;;;;;;;;;;;;;;
2023/10/26 09:44:32;;;;;;;0.00;0.00;;;;;;;37.26;23.37;97908.66;5004473;28;20084;-73
2023/10/26 09:50:39;;;;;;;;;;;;;;;;;;;;;
2023/10/26 09:53:19;;;;;;;0.00;0.00;;;;;;;37.75;22.27;97902.94;5003948;28;20020;-75
2023/10/26 09:56:22;;;;;;;0.00;0.00;;;;;;;38.05;21.69;97911.78;5003962;28;20083;-75
2023/10/26 09:59:04;;;;;;;0.00;0.00;;;;;;;38.38;21.28;97915.25;4986761;28;20096;-75
2023/10/26 10:01:51;;;;;;;0.00;0.00;;;;;;;38.66;21.54;97929.53;4995555;28;20046;-75
2023/10/26 10:04:19;;;;;;;0.00;0.00;;;;;;;38.39;20.75;97929.00;5001201;28;20137;-76
2023/10/26 10:06:57;;;;;;;0.00;0.00;;;;;;;37.95;21.00;97924.75;5004785;28;20030;-76
2023/10/26 10:09:46;;;;;;;0.00;0.00;;;;;;;37.91;21.50;97924.22;4980714;28;20033;-76
2023/10/26 10:12:15;;;;;;;0.00;0.00;;;;;;;36.11;22.88;97913.19;4967258;28;20068;-79
2023/10/26 10:15:15;;;;;;;0.00;0.00;;;;;;;35.59;24.02;97923.22;5002588;28;20716;-77
2023/10/26 10:17:56;;;;;;;0.00;0.00;;;;;;;36.76;22.56;97923.34;5003325;28;20052;-76
2023/10/26 10:20:31;;;;;;;0.00;0.00;;;;;;;37.95;20.75;97927.59;4998953;28;20104;-77
2023/10/26 10:23:17;;;;;;;0.00;0.00;;;;;;;39.37;20.05;97902.66;4991959;28;20029;-76
2023/10/26 10:25:49;;;;;;;0.00;0.00;;;;;;;38.59;19.73;97924.31;4987374;28;20026;-76
2023/10/26 10:28:51;;;;;;;;;;;;;;;;;;;;;
2023/10/26 10:31:37;;;;;;;0.00;0.00;;;;;;;37.90;21.53;97916.97;5003962;28;20024;-75
2023/10/26 10:34:08;;;;;;;0.00;0.00;;;;;;;38.59;19.50;97915.75;5003043;28;20112;-75
2023/10/26 10:37:09;;;;;;;0.00;0.00;;;;;;;39.22;18.70;97927.88;5002166;28;20340;-77
2023/10/26 10:39:41;;;;;;;0.00;0.00;;;;;;;38.73;18.76;97914.72;4984653;28;20062;-75
2023/10/26 10:42:51;;;;;;;0.00;0.00;;;;;;;38.80;19.15;97904.06;4987554;28;20116;-75
2023/10/26 10:45:22;;;;;;;0.00;0.00;;;;;;;36.90;20.74;97885.44;4977834;28;20673;-79
2023/10/26 10:48:13;;;;;;;0.00;0.00;;;;;;;36.65;20.34;97913.44;4981638;28;20026;-77
2023/10/26 10:50:41;;;;;;;0.00;0.00;;;;;;;33.51;23.38;97888.13;5002464;28;20036;-77
2023/10/26 10:53:17;;;;;;;;;;;;;;;;;;;;;
2023/10/26 10:55:52;;;;;;;0.00;0.00;;;;;;;26.87;30.81;97877.66;4993886;28;20030;-77
2023/10/26 10:58:20;;;;;;;0.00;0.00;;;;;;;27.78;31.63;97890.91;5004039;28;20028;-77
2023/10/26 11:01:15;;;;;;;0.00;0.00;;;;;;;31.52;27.64;97901.50;4977851;28;20026;-76
2023/10/26 11:03:46;;;;;;;0.00;0.00;;;;;;;33.09;25.98;97906.00;5000117;28;20068;-76
2023/10/26 11:06:32;;;;;;;;;;;;;;;;;;;;;
2023/10/26 11:09:01;;;;;;;0.00;0.00;;;;;;;34.57;24.23;97873.53;4987145;28;20038;-76
2023/10/26 11:11:27;;;;;;;0.00;0.00;;;;;;;35.58;22.43;97861.22;5005738;28;20502;-76
2023/10/26 11:14:19;;;;;;;;;;;;;;;;;;;;;
2023/10/26 11:17:00;;;;;;;0.00;0.00;;;;;;;36.57;22.00;97866.81;4997104;28;20026;-75
2023/10/26 11:36:57;;;;;;;0.00;0.00;;;;;;;27.76;29.73;97823.19;4902671;29;20043;-74
2023/10/26 11:39:53;;;;;;;0.00;0.00;;;;;;;25.92;33.74;97816.53;4873591;29;21077;-74
2023/10/26 11:42:19;;;;;;;0.00;0.00;;;;;;;25.24;35.64;97841.03;4922524;29;20139;-75
2023/10/26 11:44:58;;;;;;;0.00;0.00;;;;;;;24.77;36.90;97817.94;4911100;28;20055;-73
2023/10/26 11:47:24;;;;;;;0.00;0.00;;;;;;;25.07;36.74;97817.00;4992210;28;20026;-74
2023/10/26 11:49:49;;;;;;;0.00;0.00;;;;;;;24.91;36.46;97817.69;4977430;28;20817;-72
2023/10/26 11:52:16;;;;;;;0.00;0.00;;;;;;;23.49;38.53;97828.47;4972312;28;20538;-74
2023/10/26 11:54:52;;;;;;;0.00;0.00;;;;;;;21.97;41.29;97795.50;5008818;28;20048;-73
2023/10/26 11:57:17;;;;;;;0.00;0.00;;;;;;;21.02;45.40;97799.81;4996144;28;20034;-73
2023/10/26 11:59:46;;;;;;;0.00;0.00;;;;;;;21.10;46.42;97790.28;4982475;28;20036;-75
2023/10/26 12:02:11;;;;;;;0.00;0.00;;;;;;;22.70;44.67;97809.72;4983915;28;20065;-74
2023/10/26 12:04:47;;;;;;;;;;;;;;;;;;;;;
2023/10/26 12:07:12;;;;;;;0.00;0.00;;;;;;;25.16;39.49;97814.44;4999692;28;20032;-74
2023/10/26 12:09:45;;;;;;;0.00;0.00;;;;;;;25.93;39.28;97795.72;4971138;28;20025;-74
2023/10/26 12:12:18;;;;;;;0.00;0.00;;;;;;;27.21;36.87;97795.03;5002605;28;20088;-74
2023/10/26 12:14:46;;;;;;;0.00;0.00;;;;;;;29.29;35.69;97781.34;4984473;28;20025;-74
2023/10/26 12:17:12;;;;;;;0.00;0.00;;;;;;;28.77;34.52;97779.94;4993219;28;20030;-74